Time;durP1;ratioP1;P1;durP2;ratioP2;P2;SDS_P1;SDS_P2;PMS_P1;PMS_P2;Temp;Humidity;BMP_temperature;BMP_pressure;BME280_temperature;BME280_humidity;BME280_pressure;Samples;Min_cycle;Max_cycle;Signal;HPM_P1;HPM_P2
2023/11/14 00:00:11;;;;;;;2.27;0.80;;;10.60;99.90;10.50;99008.00;;;;4888953;28;108069;-65
2023/11/14 00:02:36;;;;;;;3.27;1.10;;;10.60;99.90;10.50;99007.00;;;;4894224;28;93440;-66
2023/11/14 00:05:03;;;;;;;2.10;0.73;;;11.90;99.90;10.50;99017.00;;;;4889151;28;121922;-65
2023/11/14 00:07:28;;;;;;;3.03;1.17;;;10.50;99.90;10.40;99020.00;;;;4891848;28;96209;-65
2023/11/14 00:09:54;;;;;;;1.63;1.07;;;10.60;99.90;10.40;99034.00;;;;4893843;28;93119;-65
2023/11/14 00:12:20;;;;;;;7.10;1.37;;;10.60;99.90;10.40;99032.00;;;;4891706;28;92704;-65
2023/11/14 00:14:47;;;;;;;1.37;1.00;;;10.60;99.90;10.40;99029.00;;;;4890098;28;92250;-65
2023/11/14 00:17:13;;;;;;;6.47;1.20;;;10.50;99.90;10.40;99042.00;;;;4888630;28;100191;-65
2023/11/14 00:19:40;;;;;;;3.90;1.10;;;10.50;99.90;10.40;99043.00;;;;4890518;28;92934;-66
2023/11/14 00:22:07;;;;;;;4.83;1.13;;;10.50;99.90;10.40;99042.00;;;;4889341;28;96052;-66
2023/11/14 00:24:33;;;;;;;0.97;0.83;;;10.50;99.90;10.40;99049.00;;;;4891187;28;94005;-65
2023/11/14 00:27:00;;;;;;;1.80;1.13;;;10.60;99.90;10.40;99044.00;;;;4894442;28;93204;-65
2023/11/14 00:29:26;;;;;;;1.57;1.07;;;10.60;99.90;10.40;99040.00;;;;4891410;28;93143;-65
2023/11/14 00:31:53;;;;;;;2.10;1.03;;;10.50;99.90;10.40;99047.00;;;;4890512;28;92961;-66
2023/11/14 00:34:19;;;;;;;0.53;0.53;;;10.30;99.90;10.40;99048.00;;;;4891495;28;93298;-65
2023/11/14 00:36:48;;;;;;;4.73;1.00;;;10.60;99.90;10.40;99039.00;;;;4892339;28;92866;-65
2023/11/14 00:39:16;;;;;;;1.93;0.90;;;10.50;99.90;10.40;99036.00;;;;4893083;28;92007;-65
2023/11/14 00:41:47;;;;;;;2.10;1.03;;;10.50;99.90;10.30;99047.00;;;;4891594;28;94179;-67
2023/11/14 00:44:16;;;;;;;0.67;0.60;;;10.40;99.90;10.30;99051.00;;;;4865827;28;94391;-64
2023/11/14 00:46:41;;;;;;;0.73;0.60;;;11.80;99.90;10.30;99056.00;;;;4889482;28;109998;-65
2023/11/14 00:49:07;;;;;;;1.37;0.80;;;10.40;99.90;10.20;99042.00;;;;4888710;28;96621;-65
2023/11/14 00:51:34;;;;;;;1.77;0.60;;;10.30;99.90;10.20;99047.00;;;;4891532;28;123060;-64
2023/11/14 00:53:59;;;;;;;1.87;1.00;;;10.30;99.90;10.20;99051.00;;;;4889153;28;92828;-65
2023/11/14 00:56:25;;;;;;;0.83;0.77;;;10.30;99.90;10.20;99058.00;;;;4888057;28;99368;-65
2023/11/14 00:58:51;;;;;;;2.87;0.90;;;10.30;99.90;10.20;99057.00;;;;4874432;28;111245;-64
2023/11/14 01:01:19;;;;;;;3.90;1.37;;;10.30;99.90;10.10;99062.00;;;;4883769;28;93809;-64
2023/11/14 01:03:44;;;;;;;0.70;0.60;;;10.30;99.90;10.10;99063.00;;;;4889989;28;93819;-65
2023/11/14 01:06:10;;;;;;;2.00;1.10;;;10.20;99.90;10.10;99069.00;;;;4890632;28;95126;-65
2023/11/14 01:08:36;;;;;;;2.47;0.93;;;10.20;99.90;10.00;99063.00;;;;4885794;28;108977;-66
2023/11/14 01:11:01;;;;;;;3.60;1.13;;;10.20;99.90;10.00;99065.00;;;;4889967;28;93634;-66
2023/11/14 01:13:27;;;;;;;1.30;0.80;;;10.10;99.90;10.00;99072.00;;;;4892207;28;107080;-65
2023/11/14 01:15:56;;;;;;;4.60;1.13;;;10.10;99.90;10.00;99080.00;;;;4886077;28;106308;-64
2023/11/14 01:18:21;;;;;;;1.43;0.77;;;10.10;99.90;10.10;99084.00;;;;4875275;28;109074;-65
2023/11/14 01:20:47;;;;;;;2.50;1.03;;;10.10;99.90;10.10;99082.00;;;;4866758;28;121564;-65
2023/11/14 01:23:16;;;;;;;1.00;0.80;;;10.20;99.90;10.10;99077.00;;;;4873204;28;96983;-66
2023/11/14 01:25:42;;;;;;;7.53;1.20;;;10.20;99.90;10.20;99073.00;;;;4870629;28;93174;-65
2023/11/14 01:28:08;;;;;;;4.17;0.80;;;10.30;99.90;10.20;99075.00;;;;4859244;28;92228;-65
2023/11/14 01:30:34;;;;;;;3.63;1.30;;;10.30;99.90;10.30;99074.00;;;;4866232;28;94190;-65
2023/11/14 01:33:00;;;;;;;0.90;0.73;;;10.40;99.90;10.40;99065.00;;;;4850752;28;122093;-65
2023/11/14 01:35:25;;;;;;;1.60;0.57;;;10.50;99.90;10.50;99060.00;;;;4851275;28;112180;-65
2023/11/14 01:37:51;;;;;;;6.93;1.00;;;10.60;99.90;10.50;99067.00;;;;4868414;28;108854;-65
2023/11/14 01:40:17;;;;;;;3.30;1.40;;;10.60;99.90;10.60;99061.00;;;;4868591;28;123816;-66
2023/11/14 01:42:42;;;;;;;2.67;0.97;;;10.60;99.90;10.60;99060.00;;;;4872419;28;113113;-65
2023/11/14 01:45:09;;;;;;;1.57;0.60;;;10.70;99.90;10.70;99067.00;;;;4868726;28;111441;-65
2023/11/14 01:47:35;;;;;;;3.57;1.27;;;10.70;99.90;10.70;99081.00;;;;4871563;28;92840;-67
2023/11/14 01:50:01;;;;;;;1.00;0.67;;;10.70;99.90;10.70;99089.00;;;;4866670;28;93958;-67
2023/11/14 01:52:27;;;;;;;6.50;1.17;;;10.80;99.90;10.80;99082.00;;;;4868761;28;103844;-67
2023/11/14 01:54:54;;;;;;;1.63;0.73;;;10.80;99.90;10.80;99086.00;;;;4873843;28;92743;-65
2023/11/14 01:57:21;;;;;;;8.17;1.27;;;10.90;99.90;10.90;99075.00;;;;4859612;28;108473;-67
2023/11/14 01:59:47;;;;;;;3.70;0.70;;;11.00;99.90;11.00;99072.00;;;;4854897;28;94743;-67
2023/11/14 02:02:14;;;;;;;3.50;1.10;;;11.00;99.90;11.00;99091.00;;;;4852978;28;123266;-66
2023/11/14 02:04:42;;;;;;;6.17;1.47;;;11.00;99.90;11.10;99081.00;;;;4872816;28;110405;-66
2023/11/14 02:07:08;;;;;;;0.67;0.60;;;11.10;99.90;11.10;99090.00;;;;4870539;28;108300;-68
2023/11/14 02:09:34;;;;;;;0.97;0.80;;;11.10;99.90;11.10;99097.00;;;;4869816;28;122588;-67
2023/11/14 02:12:00;;;;;;;2.37;1.23;;;11.20;99.90;11.20;99100.00;;;;4847641;28;93111;-67
2023/11/14 02:14:27;;;;;;;4.83;1.17;;;11.20;99.90;11.20;99098.00;;;;4870610;28;92778;-67
2023/11/14 02:16:54;;;;;;;2.30;0.97;;;11.20;99.90;11.20;99085.00;;;;4870300;28;92483;-67
2023/11/14 02:19:21;;;;;;;3.47;1.10;;;11.20;99.90;11.20;99092.00;;;;4888727;28;93867;-66
2023/11/14 02:21:47;;;;;;;3.20;1.00;;;11.20;99.90;11.20;99083.00;;;;4890823;28;93005;-68
2023/11/14 02:24:18;;;;;;;4.87;0.93;;;11.30;99.90;11.20;99091.00;;;;4886315;28;93897;-66
2023/11/14 02:26:47;;;;;;;1.37;0.73;;;11.20;99.90;11.20;99090.00;;;;4886933;28;101335;-66
2023/11/14 02:29:22;;;;;;;3.03;0.60;;;11.20;99.90;11.20;99101.00;;;;4855811;28;95160;-67
2023/11/14 02:31:51;;;;;;;1.13;0.80;;;11.30;99.90;11.30;99098.00;;;;4887449;28;93727;-67
2023/11/14 02:34:17;;;;;;;3.43;1.30;;;11.30;99.90;11.30;99087.00;;;;4890291;28;92914;-68
2023/11/14 02:36:43;;;;;;;1.53;0.87;;;11.30;99.90;11.30;99093.00;;;;4856365;28;92873;-68
2023/11/14 02:39:09;;;;;;;3.60;1.43;;;11.70;99.90;11.30;99109.00;;;;4888511;28;94130;-67
2023/11/14 02:41:35;;;;;;;1.50;0.93;;;11.30;99.90;11.30;99093.00;;;;4879913;28;94826;-68
2023/11/14 02:44:01;;;;;;;6.83;1.53;;;11.40;99.90;11.30;99106.00;;;;4879616;28;93025;-67
2023/11/14 02:46:27;;;;;;;0.97;0.90;;;11.40;99.90;11.30;99113.00;;;;4879500;28;101720;-67
2023/11/14 02:48:53;;;;;;;3.83;1.03;;;11.40;99.90;11.40;99110.00;;;;4891175;28;107491;-67
2023/11/14 02:51:19;;;;;;;1.27;1.03;;;11.40;99.90;11.40;99105.00;;;;4883825;28;107022;-67
2023/11/14 02:53:46;;;;;;;3.93;1.10;;;11.40;99.90;11.40;99106.00;;;;4891591;28;92962;-67
2023/11/14 02:56:12;;;;;;;1.53;1.07;;;11.60;99.90;11.40;99104.00;;;;4891098;28;94862;-68
2023/11/14 02:58:38;;;;;;;1.33;0.67;;;11.40;99.90;11.40;99105.00;;;;4889682;28;123158;-67
2023/11/14 03:01:04;;;;;;;5.50;1.30;;;11.50;99.90;11.40;99122.00;;;;4894281;28;92879;-68
2023/11/14 03:03:30;;;;;;;5.47;1.67;;;11.50;99.90;11.40;99114.00;;;;4897133;28;93527;-68
2023/11/14 03:05:59;;;;;;;2.00;1.10;;;11.40;99.90;11.40;99111.00;;;;4895111;28;97717;-69
2023/11/14 03:08:25;;;;;;;3.67;1.30;;;11.40;99.90;11.50;99118.00;;;;4894153;28;93816;-69
2023/11/14 03:10:51;;;;;;;5.13;1.00;;;11.50;99.90;11.50;99123.00;;;;4893861;28;121348;-69
2023/11/14 03:13:17;;;;;;;4.53;1.47;;;11.50;99.90;11.50;99110.00;;;;4880175;28;110312;-69
2023/11/14 03:15:43;;;;;;;2.70;1.20;;;11.50;99.90;11.50;99116.00;;;;4887094;28;94490;-68
2023/11/14 03:18:09;;;;;;;3.43;1.47;;;11.50;99.90;11.50;99120.00;;;;4890236;28;123344;-68
2023/11/14 03:20:35;;;;;;;3.63;1.27;;;11.50;99.90;11.50;99117.00;;;;4891268;28;99279;-67
2023/11/14 03:23:00;;;;;;;1.83;0.93;;;11.50;99.90;11.50;99121.00;;;;4891288;28;105522;-68
2023/11/14 03:25:26;;;;;;;5.03;1.10;;;11.50;99.90;11.50;99133.00;;;;4891850;28;93272;-68
2023/11/14 03:27:52;;;;;;;3.53;1.00;;;11.50;99.90;11.50;99125.00;;;;4892644;28;122329;-68
2023/11/14 03:30:19;;;;;;;3.13;1.10;;;11.50;99.90;11.50;99132.00;;;;4889576;28;122006;-67
2023/11/14 03:32:45;;;;;;;2.97;1.13;;;11.50;99.90;11.50;99136.00;;;;4877948;28;94486;-68
2023/11/14 03:35:11;;;;;;;5.80;1.30;;;11.60;99.90;11.50;99137.00;;;;4869598;28;92987;-69
2023/11/14 03:37:36;;;;;;;2.87;0.80;;;11.60;99.90;11.50;99124.00;;;;4890793;28;94552;-69
2023/11/14 03:40:05;;;;;;;1.97;1.07;;;11.60;99.90;11.50;99127.00;;;;4893640;28;122868;-68
2023/11/14 03:42:32;;;;;;;11.77;1.70;;;11.50;99.90;11.50;99136.00;;;;4876122;28;94124;-68
2023/11/14 03:44:58;;;;;;;0.73;0.73;;;11.60;99.90;11.50;99125.00;;;;4891732;28;93108;-68
2023/11/14 03:47:23;;;;;;;2.77;1.63;;;11.60;99.90;11.50;99127.00;;;;4895407;28;121233;-70
2023/11/14 03:49:49;;;;;;;5.00;1.73;;;11.60;99.90;11.50;99130.00;;;;4891081;28;94865;-69
2023/11/14 03:52:15;;;;;;;3.03;1.17;;;11.50;99.90;11.50;99129.00;;;;4891779;28;110029;-69
2023/11/14 03:54:40;;;;;;;4.60;1.60;;;11.60;99.90;11.60;99131.00;;;;4891369;28;92860;-68
2023/11/14 03:57:06;;;;;;;4.60;1.13;;;11.60;99.90;11.60;99137.00;;;;4890239;28;120226;-68
2023/11/14 03:59:32;;;;;;;3.80;1.23;;;11.60;99.90;11.50;99134.00;;;;4892974;28;123434;-68
2023/11/14 04:01:57;;;;;;;2.33;1.23;;;11.60;99.90;11.60;99145.00;;;;4892600;28;94078;-68
2023/11/14 04:04:23;;;;;;;1.30;0.80;;;11.60;99.90;11.60;99147.00;;;;4886616;28;93101;-68
2023/11/14 04:06:49;;;;;;;3.70;1.47;;;11.60;99.90;11.60;99140.00;;;;4886903;28;121245;-68
2023/11/14 04:09:14;;;;;;;17.37;1.73;;;11.60;99.90;11.60;99151.00;;;;4850789;28;95621;-68
2023/11/14 04:11:48;;;;;;;3.50;1.23;;;11.60;99.90;11.60;99160.00;;;;4887061;28;109534;-69
2023/11/14 04:14:14;;;;;;;5.53;1.40;;;11.60;99.90;11.60;99154.00;;;;4890727;28;92593;-70
2023/11/14 04:16:40;;;;;;;2.53;1.23;;;11.60;99.90;11.70;99170.00;;;;4873374;28;92826;-69
2023/11/14 04:19:05;;;;;;;1.60;1.23;;;11.60;99.90;11.70;99156.00;;;;4892313;28;122151;-69
2023/11/14 04:21:31;;;;;;;1.00;0.57;;;11.80;99.90;11.70;99160.00;;;;4890054;28;93025;-69
2023/11/14 04:23:57;;;;;;;3.70;1.27;;;11.70;99.90;11.70;99174.00;;;;4894173;28;108204;-68
2023/11/14 04:26:22;;;;;;;3.33;1.53;;;12.50;99.90;11.70;99185.00;;;;4869671;28;121789;-68
2023/11/14 04:28:49;;;;;;;3.57;1.40;;;11.70;99.90;11.70;99192.00;;;;4892913;28;122137;-68
2023/11/14 04:31:17;;;;;;;3.40;1.43;;;11.70;99.90;11.70;99187.00;;;;4870993;28;92782;-68
2023/11/14 04:33:43;;;;;;;2.77;1.97;;;11.70;99.90;11.70;99187.00;;;;4873663;28;105122;-68
2023/11/14 04:36:09;;;;;;;1.10;1.00;;;11.70;99.90;11.70;99186.00;;;;4877237;28;93890;-70
2023/11/14 04:38:36;;;;;;;5.00;1.27;;;11.70;99.90;11.70;99183.00;;;;4888888;28;92920;-70
2023/11/14 04:41:03;;;;;;;3.50;0.93;;;11.70;99.90;11.70;99172.00;;;;4894635;28;92995;-68
2023/11/14 04:43:28;;;;;;;4.33;0.80;;;11.70;99.90;11.70;99174.00;;;;4892022;28;102263;-68
2023/11/14 04:45:54;;;;;;;2.43;1.57;;;11.70;99.90;11.60;99174.00;;;;4886972;28;110241;-70
2023/11/14 04:48:20;;;;;;;7.20;1.33;;;11.70;99.90;11.60;99150.00;;;;4890798;28;121078;-69
2023/11/14 04:50:45;;;;;;;7.50;1.37;;;11.70;99.90;11.60;99158.00;;;;4891310;28;93674;-68
2023/11/14 04:53:11;;;;;;;4.93;1.43;;;11.70;99.90;11.70;99161.00;;;;4892273;28;93012;-70
2023/11/14 04:55:37;;;;;;;0.73;0.70;;;11.70;99.90;11.60;99164.00;;;;4890032;28;121876;-68
2023/11/14 04:58:03;;;;;;;3.70;1.20;;;11.60;99.90;11.60;99146.00;;;;4886139;28;121067;-69
2023/11/14 05:00:29;;;;;;;4.50;1.13;;;11.50;99.90;11.60;99159.00;;;;4890108;28;92953;-68
2023/11/14 05:02:55;;;;;;;3.13;0.83;;;11.70;99.90;11.70;99161.00;;;;4874122;28;92762;-68
2023/11/14 05:05:21;;;;;;;1.47;0.57;;;11.70;99.90;11.70;99158.00;;;;4872858;28;109052;-68
2023/11/14 05:07:47;;;;;;;4.83;1.27;;;11.60;99.90;11.70;99155.00;;;;4873808;28;121454;-68
2023/11/14 05:10:22;;;;;;;3.33;1.80;;;11.70;99.90;11.70;99159.00;;;;4889773;28;93245;-68
2023/11/14 05:12:47;;;;;;;2.73;1.30;;;11.70;99.90;11.70;99153.00;;;;4890182;28;93646;-69
2023/11/14 05:15:13;;;;;;;5.90;1.03;;;11.70;99.90;11.70;99159.00;;;;4868917;28;94170;-68
2023/11/14 05:17:39;;;;;;;1.57;0.70;;;11.70;99.90;11.70;99172.00;;;;4882192;28;124368;-68
2023/11/14 05:20:06;;;;;;;3.80;1.47;;;11.70;99.90;11.70;99179.00;;;;4889664;28;93291;-68
2023/11/14 05:22:32;;;;;;;2.53;0.87;;;11.70;99.90;11.70;99174.00;;;;4885402;28;92982;-68
2023/11/14 05:24:58;;;;;;;3.57;1.17;;;11.80;99.90;11.70;99171.00;;;;4882642;28;123077;-68
2023/11/14 05:27:23;;;;;;;5.80;0.87;;;12.20;99.90;11.70;99171.00;;;;4871166;28;121777;-69
2023/11/14 05:29:49;;;;;;;2.13;1.07;;;11.70;99.90;11.70;99158.00;;;;4882106;28;93098;-68
2023/11/14 05:32:15;;;;;;;2.47;0.97;;;11.70;99.90;11.70;99172.00;;;;4885597;28;108385;-69
2023/11/14 05:34:40;;;;;;;4.10;1.47;;;11.70;99.90;11.70;99170.00;;;;4885021;28;122685;-67
2023/11/14 05:37:08;;;;;;;3.70;1.10;;;11.70;99.90;11.70;99176.00;;;;4884339;28;121982;-68
2023/11/14 05:39:33;;;;;;;2.90;0.93;;;11.70;99.90;11.70;99165.00;;;;4887945;28;94084;-69
2023/11/14 05:41:59;;;;;;;8.60;1.33;;;11.70;99.90;11.70;99163.00;;;;4884166;28;109839;-68
2023/11/14 05:44:25;;;;;;;3.03;1.20;;;11.70;99.90;11.70;99169.00;;;;4882847;28;122723;-68
2023/11/14 05:46:51;;;;;;;4.63;1.00;;;11.70;99.90;11.60;99165.00;;;;4889307;28;93850;-68
2023/11/14 05:49:16;;;;;;;2.00;0.83;;;11.70;99.90;11.60;99160.00;;;;4883889;28;110978;-66
2023/11/14 05:51:42;;;;;;;3.70;1.17;;;11.70;99.90;11.60;99166.00;;;;4884508;28;93185;-69
2023/11/14 05:54:08;;;;;;;2.50;0.90;;;11.60;99.90;11.60;99174.00;;;;4864291;28;93032;-67
2023/11/14 05:56:34;;;;;;;2.00;1.33;;;11.80;99.90;11.60;99181.00;;;;4887514;28;93321;-67
2023/11/14 05:58:59;;;;;;;3.00;1.00;;;11.60;99.90;11.60;99164.00;;;;4861181;28;97775;-66
2023/11/14 06:01:25;;;;;;;2.90;1.00;;;11.80;99.90;11.60;99171.00;;;;4889188;28;93330;-67
2023/11/14 06:03:51;;;;;;;1.93;1.00;;;11.60;99.90;11.60;99166.00;;;;4887465;28;93607;-67
2023/11/14 06:06:17;;;;;;;3.77;1.33;;;11.60;99.90;11.60;99167.00;;;;4886947;28;106324;-69
2023/11/14 06:08:42;;;;;;;3.93;1.47;;;11.60;99.90;11.60;99158.00;;;;4891076;28;110688;-67
2023/11/14 06:11:09;;;;;;;3.93;1.40;;;11.60;99.90;11.60;99176.00;;;;4891437;28;108175;-67
2023/11/14 06:13:35;;;;;;;1.07;0.87;;;11.60;99.90;11.60;99175.00;;;;4889568;28;92857;-68
2023/11/14 06:16:01;;;;;;;1.63;0.97;;;11.60;99.90;11.60;99181.00;;;;4885698;28;92594;-67
2023/11/14 06:18:30;;;;;;;2.47;1.03;;;11.60;99.90;11.50;99171.00;;;;4873914;28;110091;-68
2023/11/14 06:20:59;;;;;;;3.50;1.10;;;11.60;99.90;11.50;99171.00;;;;4884647;28;92051;-69
2023/11/14 06:23:24;;;;;;;3.77;1.30;;;11.50;99.90;11.50;99166.00;;;;4889250;28;93865;-67
2023/11/14 06:25:50;;;;;;;7.83;1.43;;;11.50;99.90;11.40;99177.00;;;;4892917;28;112860;-68
2023/11/14 06:28:16;;;;;;;5.30;1.37;;;11.40;99.90;11.40;99177.00;;;;4893708;28;108357;-68
2023/11/14 06:30:41;;;;;;;1.07;0.93;;;11.40;99.90;11.30;99173.00;;;;4893936;28;107558;-67
2023/11/14 06:33:07;;;;;;;4.97;1.63;;;11.40;99.90;11.30;99175.00;;;;4876656;28;96011;-68
2023/11/14 06:35:33;;;;;;;4.47;1.30;;;11.30;99.90;11.20;99176.00;;;;4891583;28;122162;-68
2023/11/14 06:37:58;;;;;;;6.00;1.27;;;12.30;99.90;11.10;99185.00;;;;4891626;28;109580;-67
2023/11/14 06:40:24;;;;;;;4.27;1.10;;;11.20;99.90;11.10;99178.00;;;;4865494;28;93751;-67
2023/11/14 06:42:50;;;;;;;5.13;2.33;;;11.10;99.90;11.00;99171.00;;;;4892093;28;92740;-67
2023/11/14 06:45:17;;;;;;;5.50;1.37;;;11.10;99.90;11.00;99179.00;;;;4891269;28;96450;-68
2023/11/14 06:47:43;;;;;;;3.90;0.73;;;11.00;99.90;10.90;99173.00;;;;4893374;28;92624;-68
2023/11/14 06:50:10;;;;;;;8.20;1.90;;;11.00;99.90;10.90;99177.00;;;;4884140;28;93433;-68
2023/11/14 06:52:36;;;;;;;1.73;0.90;;;11.00;99.90;10.90;99184.00;;;;4894134;28;93638;-69
2023/11/14 06:55:03;;;;;;;1.40;0.90;;;10.90;99.90;11.00;99190.00;;;;4879784;28;117857;-68
2023/11/14 06:57:28;;;;;;;5.00;0.97;;;11.00;99.90;11.00;99199.00;;;;4890065;28;93171;-66
2023/11/14 06:59:54;;;;;;;1.37;1.10;;;11.00;99.90;11.20;99206.00;;;;4894181;28;92550;-68
2023/11/14 07:02:21;;;;;;;6.20;1.30;;;11.10;99.90;11.30;99192.00;;;;4872772;28;94755;-68
2023/11/14 07:04:47;;;;;;;4.43;1.47;;;11.30;99.90;11.30;99188.00;;;;4880183;28;94935;-67
2023/11/14 07:07:12;;;;;;;3.13;1.23;;;11.30;99.90;11.30;99175.00;;;;4889474;28;111012;-68
2023/11/14 07:09:38;;;;;;;5.77;1.63;;;11.40;99.90;11.40;99193.00;;;;4876966;28;92365;-69
2023/11/14 07:12:04;;;;;;;2.10;0.93;;;11.40;99.90;11.40;99184.00;;;;4889653;28;122804;-68
2023/11/14 07:14:30;;;;;;;2.93;1.43;;;11.40;99.90;11.30;99193.00;;;;4858548;28;115860;-67
2023/11/14 07:16:56;;;;;;;5.50;2.10;;;11.40;99.90;11.30;99187.00;;;;4889211;28;106017;-69
2023/11/14 07:19:22;;;;;;;3.80;1.63;;;11.40;99.90;11.40;99198.00;;;;4860098;28;92870;-68
2023/11/14 07:21:48;;;;;;;2.27;1.53;;;11.40;99.90;11.40;99176.00;;;;4869853;28;92963;-67
2023/11/14 07:24:14;;;;;;;5.93;1.00;;;11.40;99.90;11.40;99194.00;;;;4875937;28;117516;-67
2023/11/14 07:26:46;;;;;;;6.50;1.80;;;11.40;99.90;11.50;99187.00;;;;4869848;28;101667;-69
2023/11/14 07:29:12;;;;;;;1.33;0.77;;;11.50;99.90;11.50;99180.00;;;;4857487;28;92631;-68
2023/11/14 07:31:39;;;;;;;4.20;1.20;;;12.40;99.90;11.40;99196.00;;;;4868581;28;92710;-67
2023/11/14 07:34:05;;;;;;;0.40;0.40;;;11.50;99.90;11.40;99195.00;;;;4872837;28;92089;-67
2023/11/14 07:36:30;;;;;;;2.77;1.10;;;11.50;99.90;11.50;99203.00;;;;4868533;28;93020;-69
2023/11/14 07:38:56;;;;;;;5.20;1.17;;;11.90;99.90;11.50;99200.00;;;;4868989;28;106362;-69
2023/11/14 07:41:22;;;;;;;6.10;1.30;;;11.50;99.90;11.50;99205.00;;;;4857173;28;114323;-69
2023/11/14 07:43:48;;;;;;;0.63;0.63;;;11.50;99.90;11.50;99188.00;;;;4861042;28;95293;-68
2023/11/14 07:46:14;;;;;;;2.83;1.40;;;11.50;99.90;11.50;99206.00;;;;4873274;28;92983;-67
2023/11/14 07:48:40;;;;;;;3.63;1.30;;;11.50;99.90;11.50;99200.00;;;;4882366;28;100632;-68
2023/11/14 07:51:06;;;;;;;6.60;1.93;;;11.50;99.90;11.40;99200.00;;;;4872512;28;122743;-67
2023/11/14 07:53:31;;;;;;;4.10;1.33;;;11.50;99.90;11.50;99202.00;;;;4872928;28;92836;-68
2023/11/14 07:55:57;;;;;;;2.80;1.57;;;11.50;99.90;11.50;99198.00;;;;4872820;28;109364;-68
2023/11/14 07:58:25;;;;;;;6.90;1.67;;;11.50;99.90;11.60;99207.00;;;;4859428;28;91927;-69
2023/11/14 08:00:52;;;;;;;2.73;1.20;;;11.60;99.90;11.60;99206.00;;;;4869389;28;94689;-68
2023/11/14 08:03:18;;;;;;;4.80;1.17;;;11.60;99.90;11.50;99219.00;;;;4863646;28;116040;-70
2023/11/14 08:05:45;;;;;;;8.57;1.73;;;11.60;99.90;11.50;99217.00;;;;4854451;28;93687;-68
2023/11/14 08:08:11;;;;;;;2.43;1.20;;;11.60;99.90;11.50;99217.00;;;;4871113;28;92680;-68
2023/11/14 08:10:38;;;;;;;3.63;1.53;;;11.50;99.90;11.50;99223.00;;;;4870680;28;121871;-69
2023/11/14 08:13:09;;;;;;;0.90;0.80;;;12.10;99.90;11.60;99214.00;;;;4872117;28;92987;-68
2023/11/14 08:15:35;;;;;;;1.73;1.13;;;11.60;99.90;11.70;99219.00;;;;4870830;28;99414;-68
2023/11/14 08:18:01;;;;;;;1.43;1.20;;;11.70;99.90;11.90;99223.00;;;;4877246;28;108674;-68
2023/11/14 08:20:29;;;;;;;13.80;1.47;;;11.80;99.90;12.10;99230.00;;;;4886080;28;123088;-69
2023/11/14 08:22:55;;;;;;;1.50;1.10;;;12.00;99.90;12.10;99209.00;;;;4892572;28;92309;-68
2023/11/14 08:25:21;;;;;;;7.43;1.43;;;12.00;99.90;12.00;99205.00;;;;4888697;28;92923;-70
2023/11/14 08:27:48;;;;;;;1.73;1.00;;;11.60;99.90;12.10;99207.00;;;;4865749;28;93448;-68
2023/11/14 08:30:15;;;;;;;4.77;1.23;;;12.10;99.90;12.30;99200.00;;;;4887676;28;95492;-68
2023/11/14 08:32:42;;;;;;;3.43;1.00;;;12.30;99.90;12.40;99218.00;;;;4889688;28;94737;-69
2023/11/14 08:35:09;;;;;;;6.17;1.07;;;12.40;99.90;12.50;99219.00;;;;4888380;28;94521;-68
2023/11/14 08:37:35;;;;;;;13.13;2.00;;;12.50;99.90;12.60;99194.00;;;;4889425;28;93117;-68
2023/11/14 08:40:03;;;;;;;11.53;2.13;;;12.60;99.90;12.70;99196.00;;;;4893486;28;94178;-69
2023/11/14 08:42:29;;;;;;;3.07;1.40;;;12.70;99.90;13.00;99198.00;;;;4885199;28;93150;-69
2023/11/14 08:44:55;;;;;;;4.53;1.27;;;12.90;99.90;13.20;99205.00;;;;4869036;28;92562;-69
2023/11/14 08:47:22;;;;;;;2.70;1.20;;;13.10;99.90;13.20;99225.00;;;;4889822;28;91970;-68
2023/11/14 08:49:49;;;;;;;3.90;1.77;;;13.20;99.90;13.10;99231.00;;;;4872795;28;92790;-70
2023/11/14 08:52:15;;;;;;;2.00;1.03;;;13.10;99.50;13.10;99238.00;;;;4859657;28;111031;-69
2023/11/14 08:54:41;;;;;;;5.70;1.77;;;13.10;99.60;13.30;99230.00;;;;4874145;28;94603;-68
2023/11/14 08:57:07;;;;;;;2.17;1.43;;;13.20;99.50;13.50;99229.00;;;;4892775;28;95032;-70
2023/11/14 08:59:33;;;;;;;4.03;1.47;;;14.40;99.70;13.70;99232.00;;;;4895415;28;93595;-68
2023/11/14 09:01:58;;;;;;;5.93;0.80;;;13.60;98.80;13.90;99237.00;;;;4891400;28;93150;-70
2023/11/14 09:04:24;;;;;;;6.37;1.60;;;13.80;98.70;14.00;99244.00;;;;4890004;28;109900;-67
2023/11/14 09:06:50;;;;;;;2.10;0.83;;;14.00;98.00;13.80;99240.00;;;;4870507;28;93220;-67
2023/11/14 09:09:18;;;;;;;7.30;1.30;;;14.00;97.90;13.70;99244.00;;;;4890033;28;124086;-67
2023/11/14 09:11:43;;;;;;;3.95;1.35;;;13.80;98.00;13.60;99244.00;;;;4892175;28;93752;-69
2023/11/14 09:14:09;;;;;;;2.28;1.10;;;13.70;98.10;13.50;99249.00;;;;4871735;28;110597;-70
2023/11/14 09:16:35;;;;;;;3.23;1.33;;;13.50;98.10;13.30;99245.00;;;;4891134;28;106587;-69
2023/11/14 09:19:01;;;;;;;4.78;1.08;;;13.40;98.20;13.30;99257.00;;;;4887433;28;94005;-68
2023/11/14 09:21:27;;;;;;;5.77;1.30;;;13.30;98.60;13.30;99247.00;;;;4888524;28;121553;-69
2023/11/14 09:23:54;;;;;;;6.00;1.67;;;13.30;98.70;13.40;99258.00;;;;4891300;28;92884;-68
2023/11/14 09:26:21;;;;;;;4.37;1.73;;;13.40;98.80;13.40;99268.00;;;;4858465;28;92902;-69
2023/11/14 09:28:46;;;;;;;9.10;1.70;;;13.40;98.50;13.60;99272.00;;;;4890897;28;93225;-68
2023/11/14 09:31:12;;;;;;;5.43;1.60;;;13.50;98.40;13.70;99265.00;;;;4891241;28;92937;-70
2023/11/14 09:33:38;;;;;;;7.43;1.27;;;13.60;98.10;13.70;99272.00;;;;4862994;28;92976;-70
2023/11/14 09:36:06;;;;;;;1.33;0.97;;;13.70;98.40;14.00;99265.00;;;;4858421;28;91899;-68
2023/11/14 09:38:32;;;;;;;5.72;1.20;;;13.80;98.10;14.00;99289.00;;;;4892109;28;93995;-68
2023/11/14 09:41:00;;;;;;;3.17;1.63;;;14.00;97.50;13.90;99260.00;;;;4892849;28;121500;-68
2023/11/14 09:43:25;;;;;;;5.82;1.65;;;13.90;97.50;13.80;99259.00;;;;4881581;28;93597;-68
2023/11/14 09:45:52;;;;;;;6.50;1.47;;;13.80;97.70;13.70;99234.00;;;;4888894;28;109111;-68
2023/11/14 09:48:18;;;;;;;3.00;1.25;;;13.70;97.70;13.80;99256.00;;;;4889917;28;108717;-66
2023/11/14 09:50:45;;;;;;;3.28;1.17;;;13.70;98.10;13.80;99248.00;;;;4892414;28;93187;-68
2023/11/14 09:53:13;;;;;;;2.67;0.90;;;13.80;97.70;13.90;99248.00;;;;4888763;28;92621;-69
2023/11/14 09:55:40;;;;;;;4.43;1.67;;;13.80;97.80;14.10;99248.00;;;;4879553;28;96111;-69
2023/11/14 09:58:05;;;;;;;6.28;1.58;;;14.90;98.00;14.10;99250.00;;;;4882985;28;95800;-69
2023/11/14 10:00:33;;;;;;;1.77;0.60;;;14.00;97.60;14.20;99235.00;;;;4877206;28;121034;-68
2023/11/14 10:03:02;;;;;;;5.78;1.55;;;14.70;97.90;14.20;99234.00;;;;4861829;28;92639;-67
2023/11/14 10:05:31;;;;;;;3.88;1.27;;;14.20;97.40;14.10;99245.00;;;;4881863;28;92996;-69
2023/11/14 10:07:58;;;;;;;6.07;1.05;;;14.10;97.30;14.00;99233.00;;;;4884967;28;116272;-68
2023/11/14 10:10:24;;;;;;;4.30;1.25;;;14.00;97.10;13.90;99244.00;;;;4898497;28;93785;-69
2023/11/14 10:12:50;;;;;;;9.13;1.60;;;13.90;97.30;13.80;99236.00;;;;4878127;28;108438;-68
2023/11/14 10:15:36;;;;;;;4.60;1.23;;;13.80;97.80;13.70;99252.00;;;;4892898;28;93052;-68
2023/11/14 10:18:02;;;;;;;4.10;1.05;;;13.80;97.50;13.60;99254.00;;;;4896631;28;94667;-68
2023/11/14 10:20:39;;;;;;;3.38;1.30;;;13.70;97.50;13.50;99249.00;;;;4898616;28;92922;-66
2023/11/14 10:23:07;;;;;;;5.90;1.75;;;13.60;97.80;13.50;99247.00;;;;4877147;28;92839;-67
2023/11/14 10:25:33;;;;;;;5.00;1.45;;;13.50;97.90;13.50;99236.00;;;;4879063;28;92252;-67
2023/11/14 10:28:06;;;;;;;4.68;1.50;;;13.50;98.10;13.40;99245.00;;;;4877754;28;93926;-67
2023/11/14 10:30:49;;;;;;;4.22;1.55;;;13.50;98.40;13.40;99228.00;;;;4889635;28;93250;-67
2023/11/14 10:33:16;;;;;;;2.17;1.00;;;13.40;98.30;13.40;99263.00;;;;4872472;28;93988;-67
2023/11/14 10:35:42;;;;;;;9.82;1.85;;;13.40;98.30;13.40;99259.00;;;;4893805;28;93704;-67
2023/11/14 10:38:19;;;;;;;2.30;1.25;;;13.30;98.50;13.40;99263.00;;;;4892046;28;94163;-67
2023/11/14 10:40:53;;;;;;;2.13;1.70;;;13.40;98.50;13.40;99255.00;;;;4892933;28;94301;-69
2023/11/14 10:43:34;;;;;;;5.15;1.15;;;13.40;98.70;13.40;99239.00;;;;4893068;28;92582;-67
2023/11/14 10:46:20;;;;;;;1.20;1.00;;;13.40;98.60;13.30;99251.00;;;;4863221;28;93123;-67
2023/11/14 10:48:46;;;;;;;5.50;1.67;;;13.30;98.50;13.40;99250.00;;;;4878172;28;112133;-67